Terminal Aerodrome Forecast
Issued by NWS

Home | Current Version | Previous Version | Graphics & Text | Print | Product List | Glossary On
Versions: 1 2 3 4 5 6 7 8 9 10 11 12 13 14 15 16 17 18 19 20 21 22 23 24 25 26 27 28
000
FTUS43 KABR 221700
TAFMBG
TAF
KMBG 221739Z 2218/2318 34013KT 3SM -SN BR OVC020
      TEMPO 2218/2222 1SM -SN BR OVC010
     FM222200 33015KT 1SM -SN BR OVC010
     FM230300 34022G27KT 1/2SM -SN BLSN OVC005=

USA.gov is the U.S. government's official web portal to all federal, state and local government web resources and services.